General Soler, Argentina
Current Conditions -  °F | °C
As of 4:00 AM on Thursday 18 Dec 2014 (Local Time) from SAOC Reporting Station
Clear Clear  
Wind Chill: 19°   Ceiling: Unl
Heat Index: 19°   Visibility: 6mi
Dew Point: 15°   Wind: 5mph
Humidity: 78%   Direction: 320°NW
Pressure: 29.94"   Gusts: NA
Location:  33.95°S, 64.24°W
Report Text: SAOC 180700Z 32004KT CAVOK 19/15 Q1014
Loading
Personal Weather Stations






























Interactive Weather Map New forecast layout! Learn more

10-Day Weather Forecast

Advertisements
Track Severe Weather on mobile